createdAt,value
2023-04-08T00:02:07.525Z,15.00
2023-04-08T00:04:34.977Z,14.60
2023-04-08T00:07:02.649Z,13.77
2023-04-08T00:09:30.001Z,13.10
2023-04-08T00:11:57.687Z,13.83
2023-04-08T00:14:24.912Z,12.70
2023-04-08T00:16:52.069Z,12.67
2023-04-08T00:19:20.036Z,12.47
2023-04-08T00:21:48.355Z,11.57
2023-04-08T00:24:15.669Z,12.27
2023-04-08T00:26:42.846Z,11.93
2023-04-08T00:29:09.982Z,11.53
2023-04-08T00:31:37.330Z,11.80
2023-04-08T00:34:04.519Z,11.30
2023-04-08T00:36:31.736Z,11.77
2023-04-08T00:38:58.918Z,11.37
2023-04-08T00:41:26.135Z,11.70
2023-04-08T00:43:53.514Z,11.03
2023-04-08T00:46:21.189Z,10.80
2023-04-08T00:48:48.601Z,11.00
2023-04-08T00:51:16.432Z,11.63
2023-04-08T00:53:43.626Z,10.63
2023-04-08T00:56:11.552Z,10.90
2023-04-08T00:58:39.482Z,10.67
2023-04-08T01:01:08.818Z,10.63
2023-04-08T01:03:43.626Z,10.87
2023-04-08T01:06:27.066Z,11.80
2023-04-08T01:08:54.787Z,10.50
2023-04-08T01:11:21.988Z,10.00
2023-04-08T01:13:50.191Z,9.20
2023-04-08T01:16:17.648Z,10.00
2023-04-08T01:18:46.293Z,9.90
2023-04-08T01:21:14.002Z,10.43
2023-04-08T01:23:47.412Z,10.33
2023-04-08T01:26:22.295Z,10.10
2023-04-08T01:28:52.139Z,9.63
2023-04-08T01:31:20.026Z,9.77
2023-04-08T01:33:48.719Z,10.17
2023-04-08T01:36:17.049Z,9.27
2023-04-08T01:38:44.879Z,9.40
2023-04-08T01:41:12.204Z,10.63
2023-04-08T01:43:42.905Z,9.70
2023-04-08T01:46:11.272Z,9.77
2023-04-08T01:48:38.961Z,9.53
2023-04-08T01:51:06.442Z,10.10
2023-04-08T01:53:34.370Z,10.10
2023-04-08T01:56:07.345Z,11.20
2023-04-08T01:58:39.461Z,10.47
2023-04-08T02:01:11.379Z,10.93
2023-04-08T02:03:39.133Z,10.70
2023-04-08T02:06:06.575Z,11.40
2023-04-08T02:08:35.395Z,10.87
2023-04-08T02:11:03.334Z,10.30
2023-04-08T02:13:31.781Z,10.40
2023-04-08T02:16:05.250Z,10.50
2023-04-08T02:18:32.876Z,10.10
2023-04-08T02:21:19.416Z,10.13
2023-04-08T02:23:51.383Z,10.13
2023-04-08T02:26:19.492Z,10.60
2023-04-08T02:28:48.603Z,10.63
2023-04-08T02:31:18.120Z,9.23
2023-04-08T02:33:45.705Z,10.27
2023-04-08T02:36:13.697Z,9.83
2023-04-08T02:38:41.004Z,10.27
2023-04-08T02:41:08.339Z,9.87
2023-04-08T02:43:35.700Z,11.00
2023-04-08T02:46:04.218Z,10.43
2023-04-08T02:48:32.287Z,10.53
2023-04-08T02:50:59.792Z,10.70
2023-04-08T02:53:27.057Z,10.90
2023-04-08T02:55:54.288Z,10.63
2023-04-08T02:58:21.424Z,11.03
2023-04-08T03:00:48.644Z,10.60
2023-04-08T03:03:16.080Z,10.67
2023-04-08T03:05:43.316Z,9.80
2023-04-08T03:08:10.638Z,10.70
2023-04-08T03:10:37.858Z,11.40
2023-04-08T03:13:05.102Z,11.73
2023-04-08T03:15:32.325Z,12.80
2023-04-08T03:17:59.594Z,10.90
2023-04-08T03:20:27.101Z,11.67
2023-04-08T03:22:54.468Z,12.17
2023-04-08T03:25:21.708Z,11.07
2023-04-08T03:27:48.867Z,12.17
2023-04-08T03:30:16.088Z,12.83
2023-04-08T03:32:43.543Z,13.20
2023-04-08T03:35:11.198Z,11.50
2023-04-08T03:37:38.400Z,11.83
2023-04-08T03:40:05.806Z,11.90
2023-04-08T03:42:33.714Z,12.53
2023-04-08T03:45:00.888Z,12.90
2023-04-08T03:47:28.073Z,12.33
2023-04-08T03:49:55.268Z,12.60
2023-04-08T03:52:22.449Z,12.87
2023-04-08T03:54:49.595Z,12.27
2023-04-08T03:57:16.819Z,13.50
2023-04-08T03:59:44.064Z,13.00
2023-04-08T04:02:11.313Z,13.13
2023-04-08T04:04:38.738Z,12.17
2023-04-08T04:07:06.162Z,13.03
2023-04-08T04:09:33.372Z,13.97
2023-04-08T04:12:00.784Z,13.70
2023-04-08T04:14:27.951Z,13.87
2023-04-08T04:16:55.181Z,14.03
2023-04-08T04:19:22.382Z,14.20
2023-04-08T04:21:49.570Z,13.57
2023-04-08T04:24:16.735Z,14.13
2023-04-08T04:26:43.943Z,14.40
2023-04-08T04:29:11.493Z,13.07
2023-04-08T04:31:38.921Z,15.17
2023-04-08T04:34:06.269Z,13.97
2023-04-08T04:36:33.551Z,13.63
2023-04-08T04:39:00.830Z,14.43
2023-04-08T04:41:28.102Z,13.57
2023-04-08T04:43:55.313Z,12.83
2023-04-08T04:46:22.517Z,13.20
2023-04-08T04:48:49.921Z,13.57
2023-04-08T04:51:17.294Z,13.93
2023-04-08T04:53:44.458Z,13.33
2023-04-08T04:56:11.618Z,13.63
2023-04-08T04:58:38.904Z,13.63
2023-04-08T05:01:06.257Z,12.30
2023-04-08T05:03:33.505Z,12.83
2023-04-08T05:06:01.113Z,13.57
2023-04-08T05:08:28.441Z,12.50
2023-04-08T05:10:56.584Z,13.23
2023-04-08T05:13:23.789Z,14.47
2023-04-08T05:15:51.133Z,14.23
2023-04-08T05:18:19.896Z,14.43
2023-04-08T05:20:47.228Z,14.40
2023-04-08T05:23:14.368Z,14.83
2023-04-08T05:25:41.670Z,16.77
2023-04-08T05:28:08.833Z,16.53
2023-04-08T05:30:36.136Z,15.80
2023-04-08T05:33:03.434Z,14.83
2023-04-08T05:35:30.922Z,15.30
2023-04-08T05:37:58.191Z,15.37
2023-04-08T05:40:25.421Z,16.07
2023-04-08T05:42:52.623Z,16.13
2023-04-08T05:45:19.772Z,15.47
2023-04-08T05:47:46.973Z,15.07
2023-04-08T05:50:14.261Z,15.30
2023-04-08T05:52:44.888Z,15.80
2023-04-08T05:55:12.328Z,15.17
2023-04-08T05:57:39.505Z,15.77
2023-04-08T06:00:08.204Z,16.47
2023-04-08T06:02:36.618Z,16.43
2023-04-08T06:05:04.559Z,15.50
2023-04-08T06:07:33.126Z,16.60
2023-04-08T06:10:00.514Z,17.00
2023-04-08T06:12:27.723Z,16.47
2023-04-08T06:14:57.410Z,16.53
2023-04-08T06:17:24.768Z,17.40
2023-04-08T06:19:52.090Z,16.47
2023-04-08T06:22:19.252Z,17.67
2023-04-08T06:24:47.723Z,17.03
2023-04-08T06:27:15.231Z,16.47
2023-04-08T06:29:43.098Z,17.63
2023-04-08T06:32:10.901Z,15.20
2023-04-08T06:34:38.342Z,17.37
2023-04-08T06:37:06.468Z,17.70
2023-04-08T06:39:33.855Z,17.97
2023-04-08T06:42:01.609Z,17.20
2023-04-08T06:44:29.025Z,17.50
2023-04-08T06:46:56.520Z,17.97
2023-04-08T06:49:23.751Z,16.50
2023-04-08T06:51:51.054Z,16.20
2023-04-08T06:54:18.264Z,16.60
2023-04-08T06:56:45.459Z,17.27
2023-04-08T06:59:12.771Z,16.63
2023-04-08T07:01:40.128Z,16.10
2023-04-08T07:04:07.429Z,16.13
2023-04-08T07:06:34.970Z,15.67
2023-04-08T07:09:02.099Z,16.20
2023-04-08T07:11:29.466Z,15.97
2023-04-08T07:13:57.151Z,16.60
2023-04-08T07:16:24.374Z,16.50
2023-04-08T07:18:52.155Z,17.60
2023-04-08T07:21:19.522Z,16.27
2023-04-08T07:23:47.104Z,16.20
2023-04-08T07:26:14.452Z,17.20
2023-04-08T07:28:41.873Z,17.20
2023-04-08T07:31:13.676Z,15.90
2023-04-08T07:33:41.062Z,16.80
2023-04-08T07:36:09.412Z,16.47
2023-04-08T07:38:36.906Z,18.70
2023-04-08T07:41:04.138Z,16.63
2023-04-08T07:43:34.685Z,15.30
2023-04-08T07:46:05.671Z,15.10
2023-04-08T07:48:33.279Z,16.00
2023-04-08T07:51:09.047Z,17.03
2023-04-08T07:53:37.988Z,15.47
2023-04-08T07:56:11.231Z,15.33
2023-04-08T07:58:40.414Z,13.47
2023-04-08T08:01:19.003Z,14.33
2023-04-08T08:03:48.091Z,14.60
2023-04-08T08:06:15.990Z,14.10
2023-04-08T08:08:43.262Z,15.17
2023-04-08T08:11:10.516Z,16.00
2023-04-08T08:13:37.755Z,16.27
2023-04-08T08:16:08.918Z,15.20
2023-04-08T08:18:36.998Z,15.23
2023-04-08T08:21:04.610Z,14.73
2023-04-08T08:23:31.763Z,14.73
2023-04-08T08:26:02.068Z,14.87
2023-04-08T08:28:29.346Z,15.73
2023-04-08T08:30:56.613Z,15.90
2023-04-08T08:33:23.840Z,14.57
2023-04-08T08:35:51.818Z,15.37
2023-04-08T08:38:19.385Z,14.23
2023-04-08T08:40:46.591Z,14.10
2023-04-08T08:43:13.794Z,14.70
2023-04-08T08:45:41.598Z,16.47
2023-04-08T08:48:09.204Z,14.97
2023-04-08T08:50:36.540Z,15.07
2023-04-08T08:53:04.351Z,14.57
2023-04-08T08:55:50.781Z,14.30
2023-04-08T08:58:21.140Z,14.40
2023-04-08T09:00:48.369Z,13.83
2023-04-08T09:03:18.797Z,14.37
2023-04-08T09:05:49.932Z,14.17
2023-04-08T09:08:29.131Z,13.10
2023-04-08T09:10:56.818Z,14.00
2023-04-08T09:13:24.863Z,13.57
2023-04-08T09:16:02.271Z,13.30
2023-04-08T09:18:29.594Z,12.90
2023-04-08T09:20:56.815Z,13.63
2023-04-08T09:23:23.999Z,13.47
2023-04-08T09:25:51.305Z,13.47
2023-04-08T09:28:21.498Z,12.77
2023-04-08T09:30:48.709Z,13.17
2023-04-08T09:33:15.999Z,13.23
2023-04-08T09:35:43.773Z,14.27
2023-04-08T09:38:10.950Z,14.80
2023-04-08T09:40:39.832Z,13.43
2023-04-08T09:43:08.384Z,13.73
2023-04-08T09:45:37.304Z,13.13
2023-04-08T09:48:18.927Z,14.00
2023-04-08T09:50:50.314Z,13.97
2023-04-08T09:53:23.285Z,14.07
2023-04-08T09:55:52.040Z,15.03
2023-04-08T09:58:42.898Z,13.87
2023-04-08T10:01:13.357Z,14.40
2023-04-08T10:03:49.548Z,15.53
2023-04-08T10:06:17.940Z,14.67
2023-04-08T10:08:45.787Z,15.23
2023-04-08T10:11:13.137Z,15.27
2023-04-08T10:13:40.446Z,15.33
2023-04-08T10:16:19.327Z,15.93
2023-04-08T10:18:46.842Z,15.53
2023-04-08T10:21:42.598Z,14.83
2023-04-08T10:24:10.680Z,15.50
2023-04-08T10:26:44.590Z,14.60
2023-04-08T10:29:21.398Z,14.93
2023-04-08T10:31:49.913Z,15.57
2023-04-08T10:34:20.284Z,16.70
2023-04-08T10:36:48.175Z,16.43
2023-04-08T10:39:18.270Z,16.10
2023-04-08T10:41:45.852Z,17.20
2023-04-08T10:44:31.126Z,17.67
2023-04-08T10:46:58.503Z,16.17
2023-04-08T10:49:33.408Z,16.37
2023-04-08T10:52:00.869Z,16.77
2023-04-08T10:54:28.554Z,15.90
2023-04-08T10:56:55.824Z,16.50
2023-04-08T10:59:29.904Z,16.10
2023-04-08T11:01:58.280Z,15.73
2023-04-08T11:04:26.369Z,15.80
2023-04-08T11:06:54.143Z,15.37
2023-04-08T11:09:21.486Z,16.20
2023-04-08T11:11:48.728Z,16.50
2023-04-08T11:14:17.386Z,16.93
2023-04-08T11:16:44.731Z,17.07
2023-04-08T11:19:14.416Z,16.63
2023-04-08T11:21:41.620Z,17.20
2023-04-08T11:24:12.290Z,15.33
2023-04-08T11:26:39.923Z,15.30
2023-04-08T11:29:07.212Z,16.23
2023-04-08T11:31:34.629Z,16.17
2023-04-08T11:34:01.860Z,16.47
2023-04-08T11:36:30.217Z,15.67
2023-04-08T11:38:57.904Z,15.43
2023-04-08T11:41:25.231Z,16.33
2023-04-08T11:43:53.224Z,15.47
2023-04-08T11:46:20.884Z,16.33
2023-04-08T11:49:00.895Z,13.63
2023-04-08T11:51:28.622Z,15.63
2023-04-08T11:53:56.807Z,14.73
2023-04-08T11:56:24.582Z,16.43
2023-04-08T11:58:52.745Z,15.97
2023-04-08T12:01:21.114Z,15.33
2023-04-08T12:03:58.982Z,14.97
2023-04-08T12:06:27.455Z,15.80
2023-04-08T12:08:55.594Z,14.57
2023-04-08T12:11:22.891Z,13.70
2023-04-08T12:13:50.970Z,13.87
2023-04-08T12:16:18.515Z,13.87
2023-04-08T12:18:46.702Z,16.63
2023-04-08T12:21:13.959Z,16.70
2023-04-08T12:23:41.527Z,16.03
2023-04-08T12:26:08.972Z,15.70
2023-04-08T12:28:36.392Z,14.77
2023-04-08T12:31:03.778Z,14.70
2023-04-08T12:33:31.392Z,15.00
2023-04-08T12:35:59.398Z,14.87
2023-04-08T12:38:27.154Z,15.23
2023-04-08T12:40:54.470Z,14.07
2023-04-08T12:43:22.154Z,13.57
2023-04-08T12:45:49.356Z,12.90
2023-04-08T12:48:16.831Z,15.03
2023-04-08T12:50:44.257Z,14.57
2023-04-08T12:53:11.689Z,13.93
2023-04-08T12:55:38.908Z,13.87
2023-04-08T12:58:06.653Z,14.00
2023-04-08T13:00:33.963Z,12.63
2023-04-08T13:03:01.236Z,14.63
2023-04-08T13:05:42.198Z,13.33
2023-04-08T13:08:11.862Z,13.47
2023-04-08T13:10:39.228Z,13.13
2023-04-08T13:13:06.730Z,13.60
2023-04-08T13:15:33.936Z,12.77
2023-04-08T13:18:01.430Z,13.70
2023-04-08T13:20:28.749Z,13.27
2023-04-08T13:22:55.998Z,13.07
2023-04-08T13:25:23.226Z,14.47
2023-04-08T13:27:50.461Z,13.33
2023-04-08T13:30:17.634Z,12.13
2023-04-08T13:32:44.862Z,11.93
2023-04-08T13:35:12.166Z,12.90
2023-04-08T13:37:39.389Z,12.13
2023-04-08T13:40:08.716Z,12.87
2023-04-08T13:42:35.948Z,13.47
2023-04-08T13:45:05.215Z,13.27
2023-04-08T13:47:32.535Z,11.67
2023-04-08T13:49:59.722Z,11.87
2023-04-08T13:52:27.455Z,13.65
2023-04-08T13:54:54.599Z,12.75
2023-04-08T13:57:21.849Z,11.53
2023-04-08T13:59:49.031Z,12.20
2023-04-08T14:02:16.367Z,12.32
2023-04-08T14:04:45.856Z,13.07
2023-04-08T14:07:13.937Z,12.38
2023-04-08T14:09:41.513Z,12.98
2023-04-08T14:12:08.675Z,11.60
2023-04-08T14:14:36.053Z,12.13
2023-04-08T14:17:03.267Z,12.27
2023-04-08T14:19:30.582Z,11.77
2023-04-08T14:21:57.745Z,12.23
2023-04-08T14:24:24.939Z,11.77
2023-04-08T14:26:52.098Z,12.05
2023-04-08T14:29:19.620Z,12.60
2023-04-08T14:31:46.770Z,12.23
2023-04-08T14:34:13.918Z,11.87
2023-04-08T14:36:41.145Z,12.52
2023-04-08T14:39:08.350Z,12.15
2023-04-08T14:41:35.608Z,11.77
2023-04-08T14:44:02.877Z,10.65
2023-04-08T14:46:30.155Z,10.82
2023-04-08T14:48:57.372Z,10.60
2023-04-08T14:51:24.573Z,11.05
2023-04-08T14:53:51.785Z,10.80
2023-04-08T14:56:19.007Z,10.60
2023-04-08T14:58:49.780Z,10.07
2023-04-08T15:01:18.304Z,11.43
2023-04-08T15:03:46.404Z,10.73
2023-04-08T15:06:17.145Z,10.53
2023-04-08T15:08:44.294Z,11.33
2023-04-08T15:11:11.585Z,11.03
2023-04-08T15:13:42.194Z,10.98
2023-04-08T15:16:09.954Z,11.13
2023-04-08T15:18:37.577Z,10.87
2023-04-08T15:21:04.971Z,10.37
2023-04-08T15:23:32.370Z,10.73
2023-04-08T15:25:59.575Z,11.40
2023-04-08T15:28:30.196Z,10.07
2023-04-08T15:30:57.425Z,10.60
2023-04-08T15:33:25.126Z,11.33
2023-04-08T15:35:52.572Z,11.80
2023-04-08T15:38:22.505Z,10.90
2023-04-08T15:40:49.726Z,10.83
2023-04-08T15:43:16.894Z,10.33
2023-04-08T15:45:44.669Z,10.82
2023-04-08T15:48:11.919Z,10.83
2023-04-08T15:50:39.735Z,11.13
2023-04-08T15:53:09.981Z,11.47
2023-04-08T15:55:41.016Z,10.88
2023-04-08T15:58:08.221Z,10.50
2023-04-08T16:00:35.470Z,11.77
2023-04-08T16:03:02.902Z,11.83
2023-04-08T16:05:31.216Z,10.23
2023-04-08T16:07:58.440Z,11.70
2023-04-08T16:10:26.111Z,12.60
2023-04-08T16:12:57.021Z,11.50
2023-04-08T16:15:26.531Z,11.47
2023-04-08T16:17:53.912Z,11.37
2023-04-08T16:20:22.539Z,11.20
2023-04-08T16:22:51.295Z,10.93
2023-04-08T16:25:19.049Z,12.70
2023-04-08T16:27:47.537Z,11.67
2023-04-08T16:30:16.005Z,11.67
2023-04-08T16:32:43.977Z,11.83
2023-04-08T16:35:13.113Z,11.80
2023-04-08T16:37:40.290Z,12.33
2023-04-08T16:40:10.319Z,11.13
2023-04-08T16:42:37.529Z,11.70
2023-04-08T16:45:04.887Z,11.53
2023-04-08T16:47:32.250Z,12.32
2023-04-08T16:49:59.930Z,10.93
2023-04-08T16:52:29.937Z,11.63
2023-04-08T16:54:57.694Z,12.50
2023-04-08T16:57:24.896Z,12.13
2023-04-08T16:59:53.218Z,13.10
2023-04-08T17:02:21.892Z,12.63
2023-04-08T17:04:59.195Z,12.40
2023-04-08T17:07:28.352Z,13.77
2023-04-08T17:09:55.847Z,13.83
2023-04-08T17:12:23.008Z,13.87
2023-04-08T17:14:50.473Z,18.67
2023-04-08T17:17:17.870Z,21.47
2023-04-08T17:19:45.073Z,21.87
2023-04-08T17:22:12.241Z,23.33
2023-04-08T17:24:39.430Z,22.17
2023-04-08T17:27:07.020Z,23.47
2023-04-08T17:29:34.194Z,24.00
2023-04-08T17:32:01.484Z,23.50
2023-04-08T17:34:29.303Z,22.87
2023-04-08T17:36:56.832Z,23.53
2023-04-08T17:39:24.010Z,21.67
2023-04-08T17:41:51.458Z,21.83
2023-04-08T17:44:18.627Z,18.70
2023-04-08T17:46:46.116Z,17.47
2023-04-08T17:49:14.222Z,16.40
2023-04-08T17:51:42.815Z,17.00
2023-04-08T17:54:09.988Z,17.30
2023-04-08T17:56:37.146Z,17.37
2023-04-08T17:59:04.358Z,22.00
2023-04-08T18:01:31.692Z,22.00
2023-04-08T18:03:59.218Z,21.77
2023-04-08T18:06:26.645Z,21.97
2023-04-08T18:08:53.833Z,22.37
2023-04-08T18:11:22.902Z,23.83
2023-04-08T18:13:50.683Z,25.07
2023-04-08T18:16:18.910Z,24.43
2023-04-08T18:18:46.205Z,73.90
2023-04-08T18:21:15.075Z,77.93
2023-04-08T18:23:42.439Z,74.27
2023-04-08T18:26:10.801Z,62.53
2023-04-08T18:28:37.972Z,60.63
2023-04-08T18:31:05.212Z,56.73
2023-04-08T18:33:32.510Z,47.53
2023-04-08T18:36:06.796Z,41.37
2023-04-08T18:38:36.175Z,37.83
2023-04-08T18:41:06.408Z,37.00
2023-04-08T18:43:34.107Z,34.60
2023-04-08T18:46:01.551Z,32.50
2023-04-08T18:48:28.827Z,33.03
2023-04-08T18:50:56.697Z,31.30
2023-04-08T18:53:24.042Z,32.43
2023-04-08T18:55:51.707Z,29.57
2023-04-08T18:58:19.009Z,29.10
2023-04-08T19:00:46.335Z,30.73
2023-04-08T19:03:13.719Z,27.63
2023-04-08T19:05:40.989Z,28.97
2023-04-08T19:08:08.194Z,29.00
2023-04-08T19:10:35.672Z,29.07
2023-04-08T19:13:03.176Z,28.20
2023-04-08T19:15:30.968Z,28.10
2023-04-08T19:17:59.162Z,28.47
2023-04-08T19:20:27.389Z,29.00
2023-04-08T19:22:55.648Z,29.60
2023-04-08T19:25:22.897Z,26.97
2023-04-08T19:27:50.429Z,27.07
2023-04-08T19:30:17.725Z,28.00
2023-04-08T19:32:45.936Z,27.03
2023-04-08T19:35:13.453Z,27.97
2023-04-08T19:37:40.931Z,29.03
2023-04-08T19:40:09.074Z,27.97
2023-04-08T19:42:36.530Z,28.10
2023-04-08T19:45:05.245Z,30.27
2023-04-08T19:47:33.097Z,31.53
2023-04-08T19:50:00.603Z,32.50
2023-04-08T19:52:27.830Z,32.13
2023-04-08T19:54:55.057Z,31.40
2023-04-08T19:57:22.476Z,31.87
2023-04-08T19:59:49.703Z,31.00
2023-04-08T20:02:17.093Z,31.03
2023-04-08T20:04:45.688Z,30.60
2023-04-08T20:07:13.485Z,28.17
2023-04-08T20:09:40.787Z,28.83
2023-04-08T20:12:09.102Z,27.93
2023-04-08T20:14:38.993Z,28.57
2023-04-08T20:17:06.632Z,29.37
2023-04-08T20:19:34.102Z,28.17
2023-04-08T20:22:01.718Z,29.40
2023-04-08T20:24:28.977Z,30.50
2023-04-08T20:26:56.258Z,30.47
2023-04-08T20:29:23.662Z,28.07
2023-04-08T20:31:51.833Z,28.90
2023-04-08T20:34:19.178Z,29.90
2023-04-08T20:36:46.575Z,29.07
2023-04-08T20:39:13.728Z,28.50
2023-04-08T20:41:41.014Z,29.87
2023-04-08T20:44:10.597Z,28.73
2023-04-08T20:46:38.571Z,29.23
2023-04-08T20:49:06.361Z,27.37
2023-04-08T20:51:33.900Z,29.03
2023-04-08T20:54:01.138Z,30.17
2023-04-08T20:56:28.451Z,29.63
2023-04-08T20:58:58.214Z,30.43
2023-04-08T21:01:27.144Z,30.97
2023-04-08T21:03:54.777Z,27.50
2023-04-08T21:06:22.377Z,29.33
2023-04-08T21:08:50.167Z,29.67
2023-04-08T21:11:17.626Z,27.87
2023-04-08T21:13:46.675Z,28.23
2023-04-08T21:16:16.427Z,28.93
2023-04-08T21:18:43.918Z,29.23
2023-04-08T21:21:11.360Z,27.43
2023-04-08T21:23:38.533Z,27.63
2023-04-08T21:26:11.887Z,28.27
2023-04-08T21:28:40.096Z,27.93
2023-04-08T21:31:13.363Z,28.17
2023-04-08T21:33:41.109Z,26.27
2023-04-08T21:36:08.334Z,28.23
2023-04-08T21:38:35.781Z,27.40
2023-04-08T21:41:02.927Z,27.40
2023-04-08T21:43:30.302Z,27.90
2023-04-08T21:45:57.641Z,26.77
2023-04-08T21:48:24.960Z,27.80
2023-04-08T21:50:53.174Z,27.87
2023-04-08T21:53:22.156Z,26.90
2023-04-08T21:55:49.504Z,28.50
2023-04-08T21:58:17.242Z,29.13
2023-04-08T22:00:44.847Z,27.87
2023-04-08T22:03:12.314Z,27.70
2023-04-08T22:05:39.745Z,27.33
2023-04-08T22:08:06.975Z,28.67
2023-04-08T22:10:34.172Z,27.73
2023-04-08T22:13:01.369Z,30.10
2023-04-08T22:15:28.610Z,29.70
2023-04-08T22:17:56.082Z,28.40
2023-04-08T22:20:23.416Z,28.60
2023-04-08T22:22:50.765Z,27.80
2023-04-08T22:25:18.846Z,27.80
2023-04-08T22:27:46.124Z,27.73
2023-04-08T22:30:13.588Z,28.33
2023-04-08T22:32:41.206Z,26.67
2023-04-08T22:35:08.734Z,25.50
2023-04-08T22:37:35.972Z,27.10
2023-04-08T22:40:03.793Z,25.37
2023-04-08T22:42:31.297Z,27.47
2023-04-08T22:44:58.745Z,25.60
2023-04-08T22:47:26.146Z,23.27
2023-04-08T22:49:53.399Z,25.27
2023-04-08T22:52:20.799Z,24.70
2023-04-08T22:54:48.067Z,23.70
2023-04-08T22:57:15.485Z,23.90
2023-04-08T22:59:42.667Z,23.30
2023-04-08T23:02:10.149Z,23.67
2023-04-08T23:04:37.404Z,23.13
2023-04-08T23:07:04.619Z,22.70
2023-04-08T23:09:31.833Z,23.80
2023-04-08T23:11:59.016Z,22.73
2023-04-08T23:14:26.270Z,22.17
2023-04-08T23:16:53.496Z,22.20
2023-04-08T23:19:20.877Z,21.20
2023-04-08T23:21:48.094Z,23.70
2023-04-08T23:24:15.433Z,22.53
2023-04-08T23:26:42.632Z,22.30
2023-04-08T23:29:10.643Z,22.73
2023-04-08T23:31:38.083Z,22.70
2023-04-08T23:34:05.544Z,22.03
2023-04-08T23:36:32.677Z,22.03
2023-04-08T23:38:59.860Z,21.90
2023-04-08T23:41:27.176Z,22.73
2023-04-08T23:43:54.412Z,21.77
2023-04-08T23:46:21.732Z,22.40
2023-04-08T23:48:49.034Z,21.77
2023-04-08T23:51:16.368Z,22.60
2023-04-08T23:53:43.630Z,22.70
2023-04-08T23:56:10.997Z,23.03
2023-04-08T23:58:38.219Z,22.40
